KRTS

Reno / Stead Airport

Reno, Nevada, USA
METAR KRTS 140015Z AUTO 12005KT 10SM CLR 07/M05 A3029 RMK AO2
Observed Flight Rules
Dec-14 @ 00:15 UTC (29 minutes ago) Visual Flight Rules
Wind Visibility Clouds
120° at 5 knots 10 miles
  • Clear skies
Temperatures Readings
Current 7°C / 45°F
Dewpoint -5°C / 23°F
Humidity 42%
Altimeter 30.29" Hg
Pressure 1026 hPa
Elevation 1540
METAR KRTS 140015Z AUTO 12005KT 10SM CLR 07/M05 A3029 RMK AO2
Observed Flight Rules
Dec-14 @ 00:15 UTC
(29 minutes ago)
VFR
Wind Visibility
120° at 5 knots 10 miles
Clouds
  • Clear skies
Temperature Dewpoint
7°C / 45°F -5°C / 23°F
Humidity Altimeter Pressure
42% 30.29" Hg 1026 hPa